createdAt,value
2023-05-10T00:00:23.494Z,100.00
2023-05-10T00:03:09.736Z,100.00
2023-05-10T00:05:38.089Z,100.00
2023-05-10T00:08:06.264Z,100.00
2023-05-10T00:10:34.531Z,100.00
2023-05-10T00:13:03.945Z,100.00
2023-05-10T00:15:32.335Z,100.00
2023-05-10T00:18:00.442Z,100.00
2023-05-10T00:20:28.746Z,100.00
2023-05-10T00:22:56.744Z,100.00
2023-05-10T00:25:25.018Z,100.00
2023-05-10T00:27:53.046Z,100.00
2023-05-10T00:30:22.835Z,100.00
2023-05-10T00:32:50.979Z,100.00
2023-05-10T00:35:19.318Z,100.00
2023-05-10T00:37:47.450Z,100.00
2023-05-10T00:40:16.769Z,100.00
2023-05-10T00:42:48.978Z,100.00
2023-05-10T00:45:17.246Z,100.00
2023-05-10T00:47:47.119Z,100.00
2023-05-10T00:50:16.943Z,100.00
2023-05-10T00:52:45.347Z,100.00
2023-05-10T00:55:13.894Z,100.00
2023-05-10T00:57:41.933Z,100.00
2023-05-10T01:00:12.075Z,100.00
2023-05-10T01:02:40.423Z,100.00
2023-05-10T01:05:10.711Z,100.00
2023-05-10T01:07:38.803Z,100.00
2023-05-10T01:10:07.930Z,100.00
2023-05-10T01:12:36.825Z,100.00
2023-05-10T01:15:06.512Z,100.00
2023-05-10T01:17:34.604Z,100.00
2023-05-10T01:20:03.035Z,100.00
2023-05-10T01:22:44.702Z,100.00
2023-05-10T01:25:31.314Z,100.00
2023-05-10T01:28:41.344Z,100.00
2023-05-10T01:31:20.670Z,100.00
2023-05-10T01:33:54.421Z,100.00
2023-05-10T01:36:27.962Z,100.00
2023-05-10T01:39:01.454Z,100.00
2023-05-10T01:41:39.596Z,100.00
2023-05-10T01:44:13.486Z,100.00
2023-05-10T01:46:42.125Z,100.00
2023-05-10T01:49:14.142Z,100.00
2023-05-10T01:51:47.449Z,100.00
2023-05-10T01:54:16.207Z,100.00
2023-05-10T01:56:45.961Z,100.00
2023-05-10T01:59:15.462Z,100.00
2023-05-10T02:01:44.933Z,100.00
2023-05-10T02:04:16.675Z,100.00
2023-05-10T02:06:45.425Z,100.00
2023-05-10T02:09:13.905Z,100.00
2023-05-10T02:11:43.664Z,100.00
2023-05-10T02:14:13.382Z,100.00
2023-05-10T02:16:41.742Z,100.00
2023-05-10T02:19:11.157Z,100.00
2023-05-10T02:21:41.638Z,100.00
2023-05-10T02:24:10.737Z,100.00
2023-05-10T02:26:40.236Z,100.00
2023-05-10T02:29:08.806Z,100.00
2023-05-10T02:31:37.130Z,100.00
2023-05-10T02:34:06.164Z,100.00
2023-05-10T02:36:34.996Z,100.00
2023-05-10T02:39:05.193Z,100.00
2023-05-10T02:41:34.360Z,100.00
2023-05-10T02:44:03.562Z,100.00
2023-05-10T02:46:32.432Z,100.00
2023-05-10T02:49:00.681Z,100.00
2023-05-10T02:51:34.520Z,100.00
2023-05-10T02:54:09.006Z,100.00
2023-05-10T02:56:40.379Z,100.00
2023-05-10T02:59:08.588Z,100.00
2023-05-10T03:01:36.857Z,100.00
2023-05-10T03:04:05.326Z,100.00
2023-05-10T03:06:33.825Z,100.00
2023-05-10T03:09:05.368Z,100.00
2023-05-10T03:11:42.153Z,100.00
2023-05-10T03:14:18.067Z,100.00
2023-05-10T03:16:48.878Z,100.00
2023-05-10T03:19:20.048Z,100.00
2023-05-10T03:21:52.247Z,98.58
2023-05-10T03:24:24.239Z,98.60
2023-05-10T03:26:53.887Z,98.92
2023-05-10T03:29:22.414Z,100.00
2023-05-10T03:31:50.758Z,100.00
2023-05-10T03:34:18.946Z,100.00
2023-05-10T03:36:47.159Z,100.00
2023-05-10T03:39:15.195Z,100.00
2023-05-10T03:41:46.183Z,100.00
2023-05-10T03:44:14.233Z,100.00
2023-05-10T03:46:42.562Z,100.00
2023-05-10T03:49:10.799Z,100.00
2023-05-10T03:51:39.101Z,100.00
2023-05-10T03:54:07.397Z,100.00
2023-05-10T03:56:35.657Z,100.00
2023-05-10T03:59:08.267Z,100.00
2023-05-10T04:01:36.736Z,100.00
2023-05-10T04:04:05.032Z,100.00
2023-05-10T04:06:33.923Z,100.00
2023-05-10T04:09:04.999Z,100.00
2023-05-10T04:11:33.469Z,100.00
2023-05-10T04:14:01.567Z,100.00
2023-05-10T04:16:31.205Z,100.00
2023-05-10T04:18:59.395Z,100.00
2023-05-10T04:21:27.897Z,100.00
2023-05-10T04:23:55.861Z,100.00
2023-05-10T04:26:24.844Z,100.00
2023-05-10T04:28:52.902Z,100.00
2023-05-10T04:31:21.213Z,100.00
2023-05-10T04:33:50.860Z,100.00
2023-05-10T04:36:19.194Z,100.00
2023-05-10T04:38:47.293Z,100.00
2023-05-10T04:41:15.571Z,100.00
2023-05-10T04:43:43.505Z,100.00
2023-05-10T04:46:11.893Z,100.00
2023-05-10T04:48:39.962Z,100.00
2023-05-10T04:51:09.666Z,100.00
2023-05-10T04:53:37.654Z,100.00
2023-05-10T04:56:06.539Z,100.00
2023-05-10T04:58:34.555Z,100.00
2023-05-10T05:01:07.371Z,100.00
2023-05-10T05:03:35.511Z,100.00
2023-05-10T05:06:04.339Z,100.00
2023-05-10T05:08:33.684Z,100.00
2023-05-10T05:11:01.928Z,100.00
2023-05-10T05:13:30.065Z,100.00
2023-05-10T05:15:58.488Z,100.00
2023-05-10T05:18:26.466Z,100.00
2023-05-10T05:20:54.720Z,100.00
2023-05-10T05:23:25.606Z,100.00
2023-05-10T05:25:55.482Z,100.00
2023-05-10T05:28:23.521Z,100.00
2023-05-10T05:30:51.830Z,100.00
2023-05-10T05:33:19.803Z,100.00
2023-05-10T05:35:51.636Z,100.00
2023-05-10T05:38:19.697Z,100.00
2023-05-10T05:40:48.101Z,100.00
2023-05-10T05:43:17.462Z,100.00
2023-05-10T05:45:45.781Z,100.00
2023-05-10T05:48:13.819Z,100.00
2023-05-10T05:50:42.166Z,100.00
2023-05-10T05:53:11.008Z,100.00
2023-05-10T05:55:39.368Z,100.00
2023-05-10T05:58:07.514Z,100.00
2023-05-10T06:00:37.246Z,99.47
2023-05-10T06:03:05.440Z,98.57
2023-05-10T06:05:33.761Z,97.95
2023-05-10T06:08:02.060Z,99.66
2023-05-10T06:10:31.413Z,100.00
2023-05-10T06:12:59.443Z,100.00
2023-05-10T06:15:27.997Z,100.00
2023-05-10T06:17:57.346Z,100.00
2023-05-10T06:20:25.630Z,99.95
2023-05-10T06:22:53.636Z,100.00
2023-05-10T06:25:22.235Z,100.00
2023-05-10T06:27:52.879Z,99.40
2023-05-10T06:30:24.055Z,98.83
2023-05-10T06:32:52.759Z,99.80
2023-05-10T06:35:22.538Z,99.75
2023-05-10T06:37:50.607Z,99.91
2023-05-10T06:40:19.349Z,100.00
2023-05-10T06:42:47.526Z,100.00
2023-05-10T06:45:16.590Z,100.00
2023-05-10T06:47:45.020Z,100.00
2023-05-10T06:50:13.455Z,100.00
2023-05-10T06:52:44.078Z,100.00
2023-05-10T06:55:12.890Z,100.00
2023-05-10T06:57:40.881Z,100.00
2023-05-10T07:00:10.535Z,100.00
2023-05-10T07:02:38.575Z,100.00
2023-05-10T07:05:07.570Z,100.00
2023-05-10T07:07:35.598Z,100.00
2023-05-10T07:10:05.990Z,100.00
2023-05-10T07:12:34.135Z,100.00
2023-05-10T07:15:02.453Z,99.98
2023-05-10T07:17:31.069Z,100.00
2023-05-10T07:19:59.333Z,100.00
2023-05-10T07:22:27.414Z,99.96
2023-05-10T07:24:56.172Z,99.29
2023-05-10T07:27:25.983Z,98.38
2023-05-10T07:29:54.216Z,97.84
2023-05-10T07:32:22.360Z,96.70
2023-05-10T07:34:50.695Z,96.61
2023-05-10T07:37:18.637Z,95.47
2023-05-10T07:39:46.914Z,95.33
2023-05-10T07:42:14.944Z,94.76
2023-05-10T07:44:44.620Z,92.27
2023-05-10T07:47:12.636Z,93.14
2023-05-10T07:49:41.115Z,92.79
2023-05-10T07:52:09.092Z,92.44
2023-05-10T07:54:37.387Z,90.38
2023-05-10T07:57:05.734Z,89.78
2023-05-10T07:59:34.433Z,88.40
2023-05-10T08:02:03.783Z,89.26
2023-05-10T08:04:32.081Z,88.36
2023-05-10T08:07:00.127Z,88.08
2023-05-10T08:09:28.362Z,89.17
2023-05-10T08:11:56.380Z,85.20
2023-05-10T08:14:24.597Z,84.39
2023-05-10T08:16:52.587Z,84.73
2023-05-10T08:19:22.471Z,85.51
2023-05-10T08:21:50.712Z,83.42
2023-05-10T08:24:19.061Z,83.11
2023-05-10T08:26:47.013Z,82.45
2023-05-10T08:29:15.300Z,81.68
2023-05-10T08:31:43.611Z,81.41
2023-05-10T08:34:12.014Z,80.24
2023-05-10T08:36:41.358Z,80.78
2023-05-10T08:39:22.924Z,81.72
2023-05-10T08:41:56.244Z,80.64
2023-05-10T08:44:24.477Z,78.78
2023-05-10T08:46:53.550Z,79.61
2023-05-10T08:49:22.045Z,78.49
2023-05-10T08:51:54.362Z,79.10
2023-05-10T08:54:23.346Z,79.31
2023-05-10T08:56:51.351Z,79.10
2023-05-10T08:59:19.822Z,79.43
2023-05-10T09:01:50.263Z,79.03
2023-05-10T09:04:18.755Z,77.28
2023-05-10T09:06:46.875Z,77.44
2023-05-10T09:09:17.033Z,77.54
2023-05-10T09:11:45.464Z,76.30
2023-05-10T09:14:14.596Z,77.26
2023-05-10T09:16:43.089Z,76.29
2023-05-10T09:19:11.610Z,76.56
2023-05-10T09:21:40.150Z,78.51
2023-05-10T09:24:09.734Z,76.85
2023-05-10T09:26:48.432Z,76.44
2023-05-10T09:29:17.758Z,77.40
2023-05-10T09:31:48.311Z,77.60
2023-05-10T09:34:20.898Z,77.20
2023-05-10T09:36:56.236Z,76.56
2023-05-10T09:39:32.792Z,74.09
2023-05-10T09:42:05.234Z,75.25
2023-05-10T09:44:33.817Z,74.33
2023-05-10T09:47:02.208Z,73.39
2023-05-10T09:49:30.847Z,74.21
2023-05-10T09:52:03.669Z,73.64
2023-05-10T09:54:32.140Z,74.53
2023-05-10T09:57:00.194Z,75.41
2023-05-10T09:59:31.229Z,74.93
2023-05-10T10:02:00.153Z,76.48
2023-05-10T10:04:29.902Z,76.87
2023-05-10T10:07:02.523Z,77.88
2023-05-10T10:09:31.310Z,78.83
2023-05-10T10:11:59.685Z,76.09
2023-05-10T10:14:28.217Z,74.95
2023-05-10T10:17:07.227Z,74.38
2023-05-10T10:19:38.076Z,72.84
2023-05-10T10:22:06.819Z,73.08
2023-05-10T10:24:35.642Z,72.59
2023-05-10T10:27:11.351Z,71.99
2023-05-10T10:29:45.786Z,71.58
2023-05-10T10:32:24.538Z,73.75
2023-05-10T10:34:53.199Z,72.73
2023-05-10T10:37:21.241Z,70.25
2023-05-10T10:39:50.615Z,70.55
2023-05-10T10:42:45.833Z,70.02
2023-05-10T10:45:14.803Z,70.62
2023-05-10T10:47:44.860Z,71.23
2023-05-10T10:50:13.909Z,70.96
2023-05-10T10:52:42.728Z,68.20
2023-05-10T10:55:12.450Z,68.50
2023-05-10T10:57:48.728Z,67.84
2023-05-10T11:00:31.596Z,66.39
2023-05-10T11:03:02.483Z,62.33
2023-05-10T11:05:42.151Z,62.70
2023-05-10T11:08:12.760Z,64.22
2023-05-10T11:10:42.266Z,64.47
2023-05-10T11:13:11.176Z,63.41
2023-05-10T11:15:40.759Z,63.16
2023-05-10T11:18:23.141Z,62.15
2023-05-10T11:20:54.737Z,60.75
2023-05-10T11:23:23.137Z,61.51
2023-05-10T11:25:51.661Z,60.84
2023-05-10T11:28:20.894Z,61.53
2023-05-10T11:30:49.403Z,58.91
2023-05-10T11:33:18.753Z,58.19
2023-05-10T11:35:48.437Z,58.35
2023-05-10T11:38:16.513Z,57.23
2023-05-10T11:40:45.548Z,56.66
2023-05-10T11:43:13.981Z,58.35
2023-05-10T11:45:43.230Z,57.24
2023-05-10T11:48:11.384Z,56.30
2023-05-10T11:50:39.820Z,54.53
2023-05-10T11:53:09.406Z,54.02
2023-05-10T11:55:37.633Z,55.20
2023-05-10T11:58:05.971Z,56.45
2023-05-10T12:00:34.810Z,56.29
2023-05-10T12:03:03.403Z,55.36
2023-05-10T12:05:34.718Z,55.93
2023-05-10T12:08:17.592Z,54.80
2023-05-10T12:10:45.868Z,55.21
2023-05-10T12:13:15.420Z,56.67
2023-05-10T12:15:45.732Z,57.39
2023-05-10T12:18:14.605Z,57.02
2023-05-10T12:20:43.385Z,56.74
2023-05-10T12:23:12.021Z,56.27
2023-05-10T12:25:41.770Z,56.63
2023-05-10T12:28:11.167Z,57.42
2023-05-10T12:30:39.785Z,58.31
2023-05-10T12:33:10.837Z,59.26
2023-05-10T12:35:46.963Z,60.09
2023-05-10T12:38:31.572Z,59.49
2023-05-10T12:41:02.305Z,58.24
2023-05-10T12:43:31.204Z,58.32
2023-05-10T12:46:00.008Z,58.17
2023-05-10T12:48:29.646Z,57.45
2023-05-10T12:50:57.915Z,56.98
2023-05-10T12:53:26.072Z,55.65
2023-05-10T12:55:54.627Z,56.49
2023-05-10T12:58:34.964Z,57.05
2023-05-10T13:01:05.101Z,55.84
2023-05-10T13:03:35.558Z,57.19
2023-05-10T13:06:03.612Z,56.85
2023-05-10T13:08:34.724Z,54.97
2023-05-10T13:11:03.697Z,53.64
2023-05-10T13:13:33.362Z,54.84
2023-05-10T13:16:01.489Z,53.70
2023-05-10T13:18:29.844Z,53.47
2023-05-10T13:20:57.899Z,52.52
2023-05-10T13:23:26.148Z,50.78
2023-05-10T13:25:54.130Z,49.90
2023-05-10T13:28:22.426Z,50.40
2023-05-10T13:30:52.015Z,50.02
2023-05-10T13:33:20.435Z,49.17
2023-05-10T13:35:48.696Z,49.62
2023-05-10T13:38:16.948Z,48.48
2023-05-10T13:40:44.981Z,48.22
2023-05-10T13:43:13.436Z,48.84
2023-05-10T13:45:41.670Z,48.27
2023-05-10T13:48:11.346Z,48.48
2023-05-10T13:50:39.518Z,48.57
2023-05-10T13:53:07.938Z,47.77
2023-05-10T13:55:36.021Z,48.57
2023-05-10T13:58:04.343Z,47.23
2023-05-10T14:00:32.846Z,48.30
2023-05-10T14:03:01.562Z,46.41
2023-05-10T14:05:31.038Z,46.75
2023-05-10T14:08:07.424Z,46.45
2023-05-10T14:10:40.460Z,44.54
2023-05-10T14:13:08.943Z,45.51
2023-05-10T14:15:37.060Z,45.51
2023-05-10T14:18:05.330Z,46.14
2023-05-10T14:20:34.855Z,45.48
2023-05-10T14:23:03.336Z,45.01
2023-05-10T14:25:31.521Z,44.96
2023-05-10T14:27:59.813Z,44.86
2023-05-10T14:30:27.868Z,45.40
2023-05-10T14:32:56.334Z,45.04
2023-05-10T14:35:24.508Z,43.23
2023-05-10T14:37:54.386Z,42.36
2023-05-10T14:40:22.474Z,41.98
2023-05-10T14:42:50.762Z,42.01
2023-05-10T14:45:19.246Z,42.18
2023-05-10T14:47:47.586Z,43.89
2023-05-10T14:50:28.167Z,43.37
2023-05-10T14:53:05.204Z,43.73
2023-05-10T14:55:33.506Z,42.99
2023-05-10T14:58:01.893Z,41.95
2023-05-10T15:00:31.379Z,41.97
2023-05-10T15:03:00.528Z,40.43
2023-05-10T15:05:29.008Z,42.51
2023-05-10T15:07:57.517Z,42.59
2023-05-10T15:10:26.846Z,42.47
2023-05-10T15:12:55.025Z,41.98
2023-05-10T15:15:23.082Z,41.77
2023-05-10T15:17:51.450Z,42.16
2023-05-10T15:20:19.558Z,42.52
2023-05-10T15:22:47.804Z,42.95
2023-05-10T15:25:16.786Z,42.62
2023-05-10T15:27:46.536Z,40.89
2023-05-10T15:30:14.923Z,41.98
2023-05-10T15:32:43.831Z,42.06
2023-05-10T15:35:12.193Z,43.00
2023-05-10T15:37:40.497Z,42.14
2023-05-10T15:40:09.180Z,40.08
2023-05-10T15:42:37.596Z,40.28
2023-05-10T15:45:08.259Z,39.84
2023-05-10T15:47:36.504Z,40.54
2023-05-10T15:50:04.780Z,38.92
2023-05-10T15:52:32.977Z,39.12
2023-05-10T15:55:01.037Z,38.09
2023-05-10T15:57:29.225Z,36.75
2023-05-10T15:59:57.842Z,36.89
2023-05-10T16:02:27.434Z,35.99
2023-05-10T16:04:55.580Z,38.21
2023-05-10T16:07:23.811Z,39.26
2023-05-10T16:09:51.800Z,37.75
2023-05-10T16:12:20.950Z,38.68
2023-05-10T16:14:49.124Z,38.89
2023-05-10T16:17:17.404Z,39.63
2023-05-10T16:19:47.342Z,38.46
2023-05-10T16:22:15.719Z,39.65
2023-05-10T16:24:43.815Z,40.01
2023-05-10T16:27:13.196Z,39.96
2023-05-10T16:29:41.218Z,41.33
2023-05-10T16:32:09.439Z,40.86
2023-05-10T16:34:37.490Z,40.57
2023-05-10T16:37:07.326Z,40.46
2023-05-10T16:39:35.418Z,40.11
2023-05-10T16:42:03.615Z,39.56
2023-05-10T16:44:31.632Z,40.50
2023-05-10T16:46:59.915Z,40.62
2023-05-10T16:49:27.909Z,40.87
2023-05-10T16:51:56.171Z,41.46
2023-05-10T16:54:26.140Z,41.00
2023-05-10T16:56:54.461Z,41.66
2023-05-10T16:59:22.438Z,41.82
2023-05-10T17:01:53.292Z,42.96
2023-05-10T17:04:21.683Z,43.02
2023-05-10T17:06:49.913Z,42.80
2023-05-10T17:09:17.878Z,42.99
2023-05-10T17:11:47.562Z,42.40
2023-05-10T17:14:15.567Z,42.40
2023-05-10T17:16:43.804Z,43.24
2023-05-10T17:19:11.828Z,43.94
2023-05-10T17:21:40.156Z,45.24
2023-05-10T17:24:08.349Z,45.22
2023-05-10T17:26:36.813Z,46.47
2023-05-10T17:29:06.162Z,47.35
2023-05-10T17:31:34.489Z,48.25
2023-05-10T17:34:05.328Z,49.70
2023-05-10T17:36:34.322Z,51.11
2023-05-10T17:39:02.370Z,52.38
2023-05-10T17:41:30.622Z,52.72
2023-05-10T17:43:58.721Z,53.51
2023-05-10T17:46:28.344Z,53.98
2023-05-10T17:48:56.421Z,54.31
2023-05-10T17:51:24.600Z,54.35
2023-05-10T17:53:52.651Z,55.32
2023-05-10T17:56:22.182Z,55.17
2023-05-10T17:58:50.505Z,55.98
2023-05-10T18:01:18.903Z,56.43
2023-05-10T18:03:49.898Z,57.14
2023-05-10T18:06:18.311Z,57.20
2023-05-10T18:08:46.438Z,57.62
2023-05-10T18:11:14.726Z,57.69
2023-05-10T18:13:42.751Z,58.30
2023-05-10T18:16:12.595Z,58.70
2023-05-10T18:18:40.714Z,59.58
2023-05-10T18:21:10.378Z,59.39
2023-05-10T18:23:38.347Z,58.77
2023-05-10T18:26:06.735Z,57.74
2023-05-10T18:28:34.848Z,57.88
2023-05-10T18:31:03.232Z,57.98
2023-05-10T18:33:31.291Z,58.59
2023-05-10T18:35:59.787Z,58.71
2023-05-10T18:38:29.255Z,58.42
2023-05-10T18:40:57.709Z,59.12
2023-05-10T18:43:25.696Z,58.75
2023-05-10T18:45:53.960Z,58.87
2023-05-10T18:48:21.973Z,59.61
2023-05-10T18:50:50.254Z,59.80
2023-05-10T18:53:18.204Z,60.72
2023-05-10T18:55:47.855Z,59.96
2023-05-10T18:58:15.863Z,59.90
2023-05-10T19:00:44.085Z,59.28
2023-05-10T19:03:12.053Z,58.78
2023-05-10T19:05:40.378Z,59.13
2023-05-10T19:08:08.384Z,59.51
2023-05-10T19:10:36.642Z,60.30
2023-05-10T19:13:06.019Z,61.05
2023-05-10T19:15:34.245Z,61.02
2023-05-10T19:18:03.176Z,60.94
2023-05-10T19:20:31.425Z,61.50
2023-05-10T19:23:09.766Z,60.86
2023-05-10T19:25:39.248Z,60.99
2023-05-10T19:28:10.719Z,61.62
2023-05-10T19:30:38.955Z,62.77
2023-05-10T19:33:07.098Z,63.64
2023-05-10T19:35:35.510Z,63.91
2023-05-10T19:38:03.508Z,64.90
2023-05-10T19:40:32.010Z,65.11
2023-05-10T19:43:00.362Z,66.07
2023-05-10T19:45:30.162Z,66.48
2023-05-10T19:47:58.602Z,66.39
2023-05-10T19:50:26.988Z,66.91
2023-05-10T19:52:54.974Z,67.61
2023-05-10T19:55:28.593Z,67.52
2023-05-10T19:57:56.814Z,67.26
2023-05-10T20:00:25.987Z,66.96
2023-05-10T20:02:55.591Z,67.26
2023-05-10T20:05:24.204Z,66.74
2023-05-10T20:07:52.350Z,66.86
2023-05-10T20:10:21.521Z,66.47
2023-05-10T20:12:52.365Z,66.70
2023-05-10T20:15:22.689Z,66.12
2023-05-10T20:17:52.720Z,65.77
2023-05-10T20:20:23.523Z,65.34
2023-05-10T20:22:51.948Z,65.24
2023-05-10T20:25:20.344Z,65.49
2023-05-10T20:27:50.685Z,66.08
2023-05-10T20:30:19.519Z,66.15
2023-05-10T20:32:47.913Z,66.55
2023-05-10T20:35:16.271Z,66.07
2023-05-10T20:37:45.739Z,65.77
2023-05-10T20:40:14.279Z,65.72
2023-05-10T20:42:42.367Z,66.41
2023-05-10T20:45:11.641Z,67.15
2023-05-10T20:47:39.717Z,66.81
2023-05-10T20:50:08.868Z,67.55
2023-05-10T20:52:36.833Z,68.86
2023-05-10T20:55:07.707Z,68.18
2023-05-10T20:57:36.501Z,68.43
2023-05-10T21:00:05.679Z,68.31
2023-05-10T21:02:33.942Z,68.50
2023-05-10T21:05:02.369Z,68.96
2023-05-10T21:07:32.249Z,67.64
2023-05-10T21:10:00.503Z,69.21
2023-05-10T21:12:29.963Z,68.65
2023-05-10T21:14:58.383Z,68.64
2023-05-10T21:17:26.383Z,66.16
2023-05-10T21:19:54.664Z,68.29
2023-05-10T21:22:22.718Z,68.04
2023-05-10T21:24:51.115Z,67.92
2023-05-10T21:27:19.055Z,66.41
2023-05-10T21:29:48.766Z,66.05
2023-05-10T21:32:16.857Z,66.52
2023-05-10T21:34:45.120Z,66.49
2023-05-10T21:37:13.603Z,67.21
2023-05-10T21:39:42.101Z,67.83
2023-05-10T21:42:10.288Z,67.61
2023-05-10T21:44:39.221Z,67.74
2023-05-10T21:47:08.747Z,68.76
2023-05-10T21:49:36.981Z,68.77
2023-05-10T21:52:08.017Z,68.92
2023-05-10T21:54:37.279Z,69.54
2023-05-10T21:57:05.262Z,68.86
2023-05-10T21:59:33.845Z,69.29
2023-05-10T22:02:02.126Z,69.59
2023-05-10T22:04:32.101Z,69.62
2023-05-10T22:07:00.131Z,69.81
2023-05-10T22:09:28.386Z,69.63
2023-05-10T22:11:56.576Z,69.96
2023-05-10T22:14:25.024Z,69.82
2023-05-10T22:16:53.057Z,70.84
2023-05-10T22:19:21.326Z,69.69
2023-05-10T22:21:50.757Z,70.52
2023-05-10T22:24:19.255Z,71.08
2023-05-10T22:26:47.329Z,71.24
2023-05-10T22:29:15.532Z,72.04
2023-05-10T22:31:43.491Z,72.34
2023-05-10T22:34:11.721Z,72.96
2023-05-10T22:36:39.743Z,73.04
2023-05-10T22:39:09.371Z,73.59
2023-05-10T22:41:37.373Z,74.03
2023-05-10T22:44:05.692Z,73.96
2023-05-10T22:46:33.699Z,74.72
2023-05-10T22:49:02.535Z,75.10
2023-05-10T22:51:30.524Z,75.17
2023-05-10T22:53:58.840Z,74.56
2023-05-10T22:56:28.226Z,74.52
2023-05-10T22:58:57.680Z,74.59
2023-05-10T23:01:25.772Z,74.87
2023-05-10T23:03:54.049Z,75.85
2023-05-10T23:06:22.109Z,76.41
2023-05-10T23:08:50.396Z,76.17
2023-05-10T23:11:18.422Z,77.28
2023-05-10T23:13:48.122Z,77.03
2023-05-10T23:16:16.123Z,77.13
2023-05-10T23:18:44.391Z,77.51
2023-05-10T23:21:12.432Z,77.27
2023-05-10T23:23:41.317Z,76.97
2023-05-10T23:26:09.411Z,77.08
2023-05-10T23:28:37.914Z,76.49
2023-05-10T23:31:07.246Z,77.09
2023-05-10T23:33:35.603Z,76.98
2023-05-10T23:36:03.551Z,76.36
2023-05-10T23:38:31.864Z,76.19
2023-05-10T23:40:59.869Z,77.09
2023-05-10T23:43:28.306Z,77.79
2023-05-10T23:45:56.711Z,77.92
2023-05-10T23:48:26.662Z,77.98
2023-05-10T23:50:54.712Z,78.35
2023-05-10T23:53:23.043Z,78.86
2023-05-10T23:55:51.049Z,79.01
2023-05-10T23:58:19.282Z,79.13
